createdAt,value
2018-11-14T00:01:01.072Z,10.23
2018-11-14T00:03:30.253Z,8.83
2018-11-14T00:05:59.437Z,9.20
2018-11-14T00:08:28.605Z,9.30
2018-11-14T00:10:57.749Z,9.80
2018-11-14T00:13:26.925Z,9.00
2018-11-14T00:15:56.146Z,7.80
2018-11-14T00:18:25.333Z,8.77
2018-11-14T00:20:54.499Z,10.67
2018-11-14T00:23:23.681Z,10.67
2018-11-14T00:25:52.833Z,9.77
2018-11-14T00:31:22.182Z,11.60
2018-11-14T00:33:51.341Z,9.00
2018-11-14T00:36:20.546Z,8.77
2018-11-14T00:38:49.757Z,10.63
2018-11-14T00:41:18.936Z,10.20
2018-11-14T00:43:48.197Z,10.10
2018-11-14T00:46:17.359Z,8.67
2018-11-14T00:48:46.557Z,8.73
2018-11-14T00:51:15.730Z,8.50
2018-11-14T00:53:44.930Z,8.77
2018-11-14T00:56:14.112Z,8.77
2018-11-14T00:58:43.292Z,7.73
2018-11-14T01:01:12.436Z,9.03
2018-11-14T01:03:41.654Z,8.73
2018-11-14T01:06:10.880Z,8.87
2018-11-14T01:08:40.194Z,7.63
2018-11-14T01:11:09.381Z,8.77
2018-11-14T01:13:38.611Z,8.60
2018-11-14T01:16:07.755Z,7.00
2018-11-14T01:18:36.929Z,6.47
2018-11-14T01:21:06.254Z,7.13
2018-11-14T01:23:35.497Z,7.50
2018-11-14T01:26:04.855Z,7.50
2018-11-14T01:28:34.037Z,7.17
2018-11-14T01:31:03.195Z,7.20
2018-11-14T01:33:32.378Z,7.57
2018-11-14T01:36:01.536Z,9.03
2018-11-14T01:38:30.721Z,8.27
2018-11-14T01:40:59.918Z,6.80
2018-11-14T01:43:29.073Z,8.00
2018-11-14T01:45:58.262Z,7.10
2018-11-14T01:48:27.621Z,8.03
2018-11-14T01:50:56.776Z,8.97
2018-11-14T01:53:25.928Z,7.10
2018-11-14T01:55:55.105Z,6.77
2018-11-14T01:58:24.370Z,6.70
2018-11-14T02:00:53.583Z,6.43
2018-11-14T02:03:22.798Z,7.60
2018-11-14T02:05:51.962Z,8.63
2018-11-14T02:08:21.161Z,7.30
2018-11-14T02:10:50.313Z,9.20
2018-11-14T02:13:19.480Z,7.70
2018-11-14T02:15:48.682Z,7.40
2018-11-14T02:18:17.845Z,7.10
2018-11-14T02:20:47.045Z,6.47
2018-11-14T02:23:16.223Z,6.47
2018-11-14T02:25:45.463Z,6.43
2018-11-14T02:28:14.606Z,6.20
2018-11-14T02:33:17.083Z,6.60
2018-11-14T02:35:46.331Z,6.53
2018-11-14T02:38:15.484Z,5.60
2018-11-14T02:40:44.781Z,6.30
2018-11-14T02:43:13.980Z,6.20
2018-11-14T02:45:43.171Z,5.40
2018-11-14T02:48:12.368Z,7.03
2018-11-14T02:50:41.519Z,5.43
2018-11-14T02:53:10.733Z,6.03
2018-11-14T02:55:39.904Z,4.83
2018-11-14T02:58:09.078Z,5.60
2018-11-14T03:00:38.305Z,5.30
2018-11-14T03:03:07.514Z,5.80
2018-11-14T03:05:36.679Z,5.53
2018-11-14T03:08:06.184Z,5.70
2018-11-14T03:10:35.325Z,4.77
2018-11-14T03:13:04.793Z,5.93
2018-11-14T03:15:33.978Z,6.47
2018-11-14T03:18:03.137Z,5.20
2018-11-14T03:20:32.313Z,5.30
2018-11-14T03:23:01.503Z,6.23
2018-11-14T03:25:30.685Z,5.70
2018-11-14T03:27:59.852Z,6.03
2018-11-14T03:33:29.172Z,5.73
2018-11-14T03:36:03.734Z,5.90
2018-11-14T03:38:32.932Z,5.60
2018-11-14T03:41:02.092Z,6.40
2018-11-14T03:43:31.286Z,5.60
2018-11-14T03:46:00.472Z,5.60
2018-11-14T03:48:29.682Z,5.20
2018-11-14T03:50:58.846Z,6.00
2018-11-14T03:53:28.038Z,5.50
2018-11-14T03:55:57.194Z,5.93
2018-11-14T03:58:26.466Z,5.43
2018-11-14T04:00:55.558Z,5.13
2018-11-14T04:03:24.716Z,5.30
2018-11-14T04:05:53.913Z,5.23
2018-11-14T04:08:23.110Z,5.30
2018-11-14T04:10:52.312Z,5.90
2018-11-14T04:13:21.478Z,5.70
2018-11-14T04:15:50.702Z,5.43
2018-11-14T04:18:19.885Z,6.83
2018-11-14T04:20:49.151Z,6.47
2018-11-14T04:23:18.346Z,8.03
2018-11-14T04:25:47.684Z,5.70
2018-11-14T04:28:16.838Z,4.70
2018-11-14T04:31:00.511Z,5.93
2018-11-14T04:33:58.833Z,4.10
2018-11-14T04:36:28.043Z,6.33
2018-11-14T04:38:57.240Z,6.20
2018-11-14T04:41:26.432Z,5.33
2018-11-14T04:43:55.581Z,6.30
2018-11-14T04:46:24.809Z,5.70
2018-11-14T04:48:53.963Z,6.53
2018-11-14T04:51:23.132Z,6.30
2018-11-14T04:53:52.361Z,5.60
2018-11-14T04:56:21.593Z,5.67
2018-11-14T04:58:50.741Z,5.97
2018-11-14T05:01:19.983Z,7.00
2018-11-14T05:03:49.241Z,6.40
2018-11-14T05:06:18.569Z,7.53
2018-11-14T05:09:00.961Z,5.70
2018-11-14T05:11:30.218Z,7.57
2018-11-14T05:13:59.415Z,6.10
2018-11-14T05:16:28.767Z,6.00
2018-11-14T05:18:57.944Z,7.17
2018-11-14T05:21:27.208Z,6.27
2018-11-14T05:23:56.554Z,6.53
2018-11-14T05:26:26.228Z,7.30
2018-11-14T05:28:55.958Z,7.17
2018-11-14T05:31:25.245Z,5.63
2018-11-14T05:33:54.550Z,6.60
2018-11-14T05:36:23.789Z,7.20
2018-11-14T05:38:53.075Z,7.40
2018-11-14T05:41:22.460Z,6.93
2018-11-14T05:43:51.720Z,7.77
2018-11-14T05:46:20.892Z,6.83
2018-11-14T05:48:50.471Z,6.70
2018-11-14T05:51:19.709Z,7.10
2018-11-14T05:53:48.906Z,7.17
2018-11-14T05:56:18.084Z,6.27
2018-11-14T05:58:47.414Z,7.47
2018-11-14T06:01:16.560Z,7.50
2018-11-14T06:03:45.762Z,6.63
2018-11-14T06:06:14.920Z,6.73
2018-11-14T06:08:44.100Z,6.13
2018-11-14T06:11:13.381Z,6.67
2018-11-14T06:13:42.581Z,6.37
2018-11-14T06:16:11.762Z,7.20
2018-11-14T06:19:00.471Z,7.07
2018-11-14T06:21:29.712Z,6.63
2018-11-14T06:23:58.878Z,7.07
2018-11-14T06:26:28.073Z,6.90
2018-11-14T06:28:57.309Z,6.80
2018-11-14T06:31:26.490Z,7.27
2018-11-14T06:33:55.729Z,5.90
2018-11-14T06:36:25.147Z,7.97
2018-11-14T06:38:54.385Z,7.97
2018-11-14T06:41:23.630Z,8.00
2018-11-14T06:43:52.832Z,6.43
2018-11-14T06:49:22.622Z,6.60
2018-11-14T06:51:51.861Z,6.33
2018-11-14T06:54:21.190Z,7.57
2018-11-14T06:56:50.401Z,7.93
2018-11-14T06:59:19.694Z,8.00
2018-11-14T07:01:48.822Z,6.70
2018-11-14T07:04:18.065Z,6.70
2018-11-14T07:06:47.365Z,6.87
2018-11-14T07:09:16.514Z,7.93
2018-11-14T07:11:45.709Z,8.83
2018-11-14T07:14:14.902Z,8.67
2018-11-14T07:16:44.113Z,8.73
2018-11-14T07:19:13.326Z,9.13
2018-11-14T07:21:42.492Z,9.43
2018-11-14T07:24:12.050Z,7.83
2018-11-14T07:26:41.265Z,9.20
2018-11-14T07:29:10.540Z,7.33
2018-11-14T07:31:39.782Z,8.87
2018-11-14T07:34:08.973Z,8.30
2018-11-14T07:36:38.206Z,7.00
2018-11-14T07:39:09.764Z,9.23
2018-11-14T07:42:01.998Z,8.90
2018-11-14T07:44:31.188Z,8.70
2018-11-14T07:47:00.446Z,7.50
2018-11-14T07:49:29.636Z,7.80
2018-11-14T07:51:58.804Z,8.20
2018-11-14T07:54:28.180Z,10.13
2018-11-14T07:56:57.350Z,8.27
2018-11-14T07:59:26.614Z,8.57
2018-11-14T08:02:00.524Z,8.97
2018-11-14T08:04:29.712Z,7.43
2018-11-14T08:06:58.932Z,8.60
2018-11-14T08:12:29.084Z,6.73
2018-11-14T08:14:58.505Z,8.27
2018-11-14T08:17:27.922Z,6.40
2018-11-14T08:19:57.287Z,6.30
2018-11-14T08:22:26.907Z,6.43
2018-11-14T08:24:56.183Z,6.23
2018-11-14T08:27:25.310Z,5.93
2018-11-14T08:29:54.550Z,5.27
2018-11-14T08:32:23.730Z,5.67
2018-11-14T08:34:52.885Z,5.17
2018-11-14T08:37:22.062Z,5.80
2018-11-14T08:39:51.310Z,4.80
2018-11-14T08:42:20.504Z,5.50
2018-11-14T08:44:49.789Z,5.57
2018-11-14T08:47:19.044Z,5.70
2018-11-14T08:49:48.221Z,6.37
2018-11-14T08:52:17.382Z,5.97
2018-11-14T08:54:46.598Z,6.70
2018-11-14T08:57:15.981Z,5.23
2018-11-14T08:59:45.157Z,6.13
2018-11-14T09:02:14.387Z,5.37
2018-11-14T09:04:43.583Z,4.80
2018-11-14T09:07:12.874Z,5.80
2018-11-14T09:09:42.886Z,4.60
2018-11-14T09:12:12.169Z,5.57
2018-11-14T09:14:41.321Z,4.77
2018-11-14T09:17:10.687Z,5.07
2018-11-14T09:19:39.917Z,5.50
2018-11-14T09:22:09.076Z,5.33
2018-11-14T09:24:38.295Z,4.80
2018-11-14T09:27:07.585Z,5.30
2018-11-14T09:29:36.970Z,4.10
2018-11-14T09:32:06.187Z,3.50
2018-11-14T09:34:35.409Z,4.37
2018-11-14T09:37:04.740Z,4.50
2018-11-14T09:39:34.067Z,4.30
2018-11-14T09:42:03.310Z,3.67
2018-11-14T09:44:32.749Z,3.73
2018-11-14T09:47:01.889Z,3.43
2018-11-14T09:49:31.339Z,3.90
2018-11-14T09:52:00.504Z,4.07
2018-11-14T09:54:29.711Z,3.97
2018-11-14T09:56:59.503Z,3.30
2018-11-14T09:59:28.869Z,3.83
2018-11-14T10:02:04.330Z,3.73
2018-11-14T10:04:33.514Z,3.70
2018-11-14T10:07:02.700Z,4.07
2018-11-14T10:09:31.914Z,4.27
2018-11-14T10:12:01.121Z,5.17
2018-11-14T10:14:30.484Z,4.40
2018-11-14T10:16:59.846Z,9.33
2018-11-14T10:19:29.166Z,4.20
2018-11-14T10:21:58.360Z,3.70
2018-11-14T10:24:28.021Z,3.60
2018-11-14T10:26:57.297Z,4.50
2018-11-14T10:29:26.473Z,4.43
2018-11-14T10:31:59.438Z,4.03
2018-11-14T10:34:28.632Z,4.20
2018-11-14T10:36:57.972Z,4.33
2018-11-14T10:39:27.194Z,4.23
2018-11-14T10:41:56.439Z,4.67
2018-11-14T10:44:25.662Z,5.10
2018-11-14T10:46:54.866Z,4.00
2018-11-14T10:49:24.090Z,4.13
2018-11-14T10:51:53.283Z,3.70
2018-11-14T10:54:22.486Z,3.80
2018-11-14T10:56:51.728Z,3.70
2018-11-14T10:59:20.897Z,3.77
2018-11-14T11:01:59.171Z,3.67
2018-11-14T11:04:33.886Z,3.90
2018-11-14T11:07:08.441Z,3.90
2018-11-14T11:09:43.007Z,4.70
2018-11-14T11:12:17.641Z,4.00
2018-11-14T11:14:52.073Z,4.50
2018-11-14T11:17:26.697Z,6.60
2018-11-14T11:19:56.112Z,5.20
2018-11-14T11:22:25.429Z,3.77
2018-11-14T11:24:54.621Z,5.50
2018-11-14T11:27:23.963Z,5.10
2018-11-14T11:29:53.227Z,3.87
2018-11-14T11:32:22.534Z,4.03
2018-11-14T11:34:52.294Z,4.20
2018-11-14T11:37:21.639Z,3.60
2018-11-14T11:40:03.655Z,3.47
2018-11-14T11:42:32.885Z,5.73
2018-11-14T11:45:02.261Z,3.97
2018-11-14T11:47:31.703Z,6.50
2018-11-14T11:50:01.271Z,4.43
2018-11-14T11:52:30.591Z,4.23
2018-11-14T11:55:03.487Z,4.40
2018-11-14T11:57:32.852Z,3.90
2018-11-14T12:00:02.448Z,4.20
2018-11-14T12:02:31.585Z,5.17
2018-11-14T12:05:00.769Z,4.63
2018-11-14T12:07:29.982Z,4.60
2018-11-14T12:09:59.186Z,5.00
2018-11-14T12:12:28.479Z,5.30
2018-11-14T12:14:57.717Z,5.37
2018-11-14T12:17:26.891Z,4.30
2018-11-14T12:19:56.141Z,4.37
2018-11-14T12:25:25.380Z,4.00
2018-11-14T12:27:54.623Z,3.40
2018-11-14T12:30:23.840Z,3.67
2018-11-14T12:32:53.073Z,4.30
2018-11-14T12:35:22.431Z,4.20
2018-11-14T12:37:51.606Z,3.70
2018-11-14T12:40:20.773Z,4.47
2018-11-14T12:42:50.016Z,4.77
2018-11-14T12:45:19.291Z,5.33
2018-11-14T12:47:48.494Z,4.27
2018-11-14T12:50:17.690Z,4.10
2018-11-14T12:52:46.946Z,3.60
2018-11-14T12:55:17.406Z,5.40
2018-11-14T12:57:46.849Z,4.40
2018-11-14T13:00:17.685Z,4.20
2018-11-14T13:02:46.897Z,3.93
2018-11-14T13:05:16.498Z,3.57
2018-11-14T13:07:46.156Z,3.63
2018-11-14T13:10:16.513Z,4.90
2018-11-14T13:13:01.818Z,3.97
2018-11-14T13:15:31.052Z,4.23
2018-11-14T13:18:00.229Z,3.53
2018-11-14T13:20:29.425Z,4.20
2018-11-14T13:22:58.686Z,4.60
2018-11-14T13:25:27.842Z,4.37
2018-11-14T13:27:57.127Z,4.30
2018-11-14T13:30:26.280Z,3.77
2018-11-14T13:32:55.500Z,3.80
2018-11-14T13:35:25.274Z,3.60
2018-11-14T13:37:54.475Z,3.97
2018-11-14T13:40:23.667Z,4.17
2018-11-14T13:42:52.857Z,3.90
2018-11-14T13:45:22.019Z,4.73
2018-11-14T13:47:51.225Z,4.87
2018-11-14T13:50:22.131Z,4.43
2018-11-14T13:52:51.393Z,3.53
2018-11-14T13:55:21.695Z,4.23
2018-11-14T13:57:51.962Z,4.30
2018-11-14T14:00:22.255Z,3.93
2018-11-14T14:02:52.617Z,4.17
2018-11-14T14:05:23.117Z,4.00
2018-11-14T14:07:52.360Z,4.70
2018-11-14T14:10:21.592Z,3.93
2018-11-14T14:13:03.102Z,3.20
2018-11-14T14:15:32.327Z,2.80
2018-11-14T14:18:01.493Z,4.20
2018-11-14T14:20:30.717Z,5.17
2018-11-14T14:22:59.900Z,4.00
2018-11-14T14:25:29.140Z,4.33
2018-11-14T14:27:58.359Z,3.00
2018-11-14T14:30:27.679Z,3.93
2018-11-14T14:32:56.886Z,4.17
2018-11-14T14:35:26.102Z,3.97
2018-11-14T14:37:55.486Z,5.13
2018-11-14T14:43:24.748Z,7.20
2018-11-14T14:45:54.114Z,6.63
2018-11-14T14:48:23.317Z,5.73
2018-11-14T14:50:52.562Z,8.90
2018-11-14T14:53:21.866Z,6.50
2018-11-14T14:55:51.062Z,7.77
2018-11-14T14:58:20.245Z,7.03
2018-11-14T15:00:49.442Z,7.87
2018-11-14T15:03:18.720Z,7.53
2018-11-14T15:05:48.526Z,5.80
2018-11-14T15:08:17.749Z,6.90
2018-11-14T15:10:46.973Z,5.00
2018-11-14T15:13:16.187Z,6.07
2018-11-14T15:15:45.478Z,6.30
2018-11-14T15:18:14.689Z,6.20
2018-11-14T15:20:43.916Z,5.70
2018-11-14T15:23:13.148Z,5.03
2018-11-14T15:25:42.419Z,5.93
2018-11-14T15:28:12.117Z,6.53
2018-11-14T15:30:41.378Z,7.50
2018-11-14T15:33:10.643Z,6.00
2018-11-14T15:35:39.919Z,6.47
2018-11-14T15:38:09.110Z,7.40
2018-11-14T15:40:38.705Z,6.70
2018-11-14T15:43:07.915Z,6.10
2018-11-14T15:46:00.577Z,5.87
2018-11-14T15:48:29.901Z,5.43
2018-11-14T15:51:02.754Z,6.43
2018-11-14T15:53:31.948Z,5.50
2018-11-14T15:56:01.230Z,7.93
2018-11-14T15:58:30.523Z,6.67
2018-11-14T16:00:59.832Z,8.40
2018-11-14T16:03:29.099Z,10.83
2018-11-14T16:05:58.347Z,9.77
2018-11-14T16:08:29.234Z,8.17
2018-11-14T16:10:58.601Z,9.13
2018-11-14T16:13:27.868Z,13.07
2018-11-14T16:15:57.498Z,17.23
2018-11-14T16:18:26.915Z,31.50
2018-11-14T16:20:56.134Z,17.47
2018-11-14T16:23:25.461Z,17.23
2018-11-14T16:25:54.645Z,14.60
2018-11-14T16:28:23.942Z,10.87
2018-11-14T16:30:53.324Z,11.17
2018-11-14T16:33:22.655Z,11.67
2018-11-14T16:35:52.917Z,11.03
2018-11-14T16:38:22.271Z,13.67
2018-11-14T16:40:52.001Z,14.33
2018-11-14T16:43:22.302Z,11.03
2018-11-14T16:45:52.245Z,12.63
2018-11-14T16:48:21.586Z,17.07
2018-11-14T16:50:52.648Z,23.13
2018-11-14T16:53:22.642Z,54.87
2018-11-14T16:55:52.039Z,24.93
2018-11-14T16:58:21.345Z,19.50
2018-11-14T17:01:03.132Z,24.97
2018-11-14T17:03:59.516Z,19.33
2018-11-14T17:06:29.360Z,20.57
2018-11-14T17:08:58.735Z,25.43
2018-11-14T17:11:28.005Z,25.70
2018-11-14T17:14:03.040Z,44.33
2018-11-14T17:16:32.338Z,44.93
2018-11-14T17:19:02.405Z,36.90
2018-11-14T17:21:31.778Z,37.07
2018-11-14T17:24:02.256Z,41.50
2018-11-14T17:26:32.219Z,24.80
2018-11-14T17:29:01.547Z,26.47
2018-11-14T17:31:30.998Z,23.00
2018-11-14T17:34:04.566Z,15.97
2018-11-14T17:36:34.777Z,18.40
2018-11-14T17:39:06.553Z,17.53
2018-11-14T17:41:35.946Z,18.00
2018-11-14T17:44:05.861Z,19.03
2018-11-14T17:47:06.494Z,24.77
2018-11-14T17:49:36.491Z,29.60
2018-11-14T17:52:06.542Z,27.70
2018-11-14T17:54:35.861Z,27.40
2018-11-14T17:57:08.100Z,78.20
2018-11-14T17:59:37.406Z,41.47
2018-11-14T18:02:07.264Z,40.90
2018-11-14T18:04:36.660Z,27.80
2018-11-14T18:07:06.265Z,25.13
2018-11-14T18:09:35.521Z,9.20
2018-11-14T18:12:04.853Z,24.20
2018-11-14T18:14:59.961Z,20.63
2018-11-14T18:30:00.379Z,32.03
2018-11-14T18:38:59.804Z,12.70
2018-11-14T18:59:59.838Z,32.87
2018-11-14T19:11:59.618Z,29.37
2018-11-14T19:26:59.811Z,22.60
2018-11-14T19:29:30.157Z,13.30
2018-11-14T19:32:04.027Z,19.00
2018-11-14T19:35:01.373Z,13.90
2018-11-14T19:38:00.128Z,31.30
2018-11-14T19:43:59.839Z,46.47
2018-11-14T19:55:30.960Z,22.10
2018-11-14T19:58:04.801Z,22.00
2018-11-14T20:03:59.762Z,29.77
2018-11-14T20:09:59.527Z,31.27
2018-11-14T20:12:55.132Z,38.57
2018-11-14T20:15:26.273Z,25.73
2018-11-14T20:17:56.362Z,13.90
2018-11-14T20:20:31.284Z,14.50
2018-11-14T20:23:01.068Z,21.67
2018-11-14T20:25:31.180Z,28.90
2018-11-14T20:28:01.662Z,22.93
2018-11-14T20:30:59.864Z,20.53
2018-11-14T20:33:29.555Z,29.30
2018-11-14T20:35:59.116Z,15.60
2018-11-14T20:38:28.503Z,22.30
2018-11-14T20:40:58.765Z,42.03
2018-11-14T20:46:29.398Z,29.33
2018-11-14T20:48:59.009Z,42.20
2018-11-14T20:51:29.058Z,19.40
2018-11-14T20:53:58.303Z,20.20
2018-11-14T20:56:27.704Z,25.77
2018-11-14T20:58:57.292Z,20.60
2018-11-14T21:01:26.518Z,26.80
2018-11-14T21:03:55.813Z,21.00
2018-11-14T21:06:25.369Z,21.67
2018-11-14T21:08:54.626Z,34.87
2018-11-14T21:11:23.828Z,20.90
2018-11-14T21:13:53.160Z,21.13
2018-11-14T21:16:22.702Z,21.40
2018-11-14T21:18:51.994Z,26.77
2018-11-14T21:21:22.056Z,26.87
2018-11-14T21:23:51.319Z,42.37
2018-11-14T21:26:20.505Z,44.30
2018-11-14T21:28:49.728Z,36.80
2018-11-14T21:31:19.542Z,34.77
2018-11-14T21:33:48.774Z,24.67
2018-11-14T21:36:17.970Z,26.20
2018-11-14T21:38:47.230Z,42.63
2018-11-14T21:41:16.602Z,38.37
2018-11-14T21:43:45.930Z,30.20
2018-11-14T21:46:15.523Z,30.43
2018-11-14T21:48:45.382Z,38.67
2018-11-14T21:51:14.664Z,27.37
2018-11-14T21:53:43.903Z,28.77
2018-11-14T21:56:13.268Z,47.23
2018-11-14T21:58:42.553Z,44.30
2018-11-14T22:01:11.801Z,53.60
2018-11-14T22:03:41.045Z,30.70
2018-11-14T22:06:10.270Z,30.67
2018-11-14T22:08:39.444Z,39.17
2018-11-14T22:11:08.730Z,48.93
2018-11-14T22:13:37.956Z,30.97
2018-11-14T22:16:07.412Z,51.60
2018-11-14T22:18:36.943Z,49.40
2018-11-14T22:21:06.369Z,48.67
2018-11-14T22:24:00.453Z,47.03
2018-11-14T22:26:29.813Z,48.80
2018-11-14T22:28:59.014Z,42.73
2018-11-14T22:31:28.230Z,47.00
2018-11-14T22:33:57.448Z,42.40
2018-11-14T22:36:26.708Z,40.10
2018-11-14T22:38:56.001Z,35.77
2018-11-14T22:41:25.301Z,36.37
2018-11-14T22:43:54.613Z,45.73
2018-11-14T22:46:25.173Z,38.80
2018-11-14T22:48:54.417Z,29.90
2018-11-14T22:51:23.683Z,42.60
2018-11-14T22:53:52.936Z,35.90
2018-11-14T22:56:22.123Z,39.47
2018-11-14T22:58:51.420Z,37.70
2018-11-14T23:01:20.598Z,38.33
2018-11-14T23:03:49.839Z,33.97
2018-11-14T23:12:20.162Z,41.13
2018-11-14T23:14:49.313Z,47.57
2018-11-14T23:17:18.518Z,48.37
2018-11-14T23:19:47.884Z,44.57
2018-11-14T23:22:17.053Z,56.27
2018-11-14T23:24:46.212Z,57.27
2018-11-14T23:27:15.431Z,56.67
2018-11-14T23:29:44.598Z,49.40
2018-11-14T23:32:13.789Z,53.00
2018-11-14T23:35:06.942Z,27.80
2018-11-14T23:37:36.134Z,30.43
2018-11-14T23:40:05.756Z,46.97
2018-11-14T23:42:34.952Z,43.07
2018-11-14T23:45:04.466Z,54.33
2018-11-14T23:47:33.636Z,58.90
2018-11-14T23:50:02.832Z,61.20
2018-11-14T23:52:32.031Z,57.33
2018-11-14T23:55:01.203Z,55.87
2018-11-14T23:57:30.397Z,53.30
2018-11-14T23:59:59.579Z,67.30
